createdAt,value
2018-11-05T00:00:53.945Z,10.90
2018-11-05T00:03:21.456Z,11.00
2018-11-05T00:05:50.881Z,11.00
2018-11-05T00:08:18.420Z,10.90
2018-11-05T00:10:45.955Z,10.90
2018-11-05T00:13:13.515Z,10.90
2018-11-05T00:15:43.367Z,10.80
2018-11-05T00:18:11.203Z,10.90
2018-11-05T00:20:38.734Z,10.80
2018-11-05T00:23:06.294Z,10.90
2018-11-05T00:25:34.633Z,11.00
2018-11-05T00:28:02.812Z,10.90
2018-11-05T00:30:30.360Z,10.90
2018-11-05T00:32:58.577Z,10.90
2018-11-05T00:35:26.122Z,10.90
2018-11-05T00:37:54.241Z,10.90
2018-11-05T00:40:21.775Z,10.90
2018-11-05T00:42:50.065Z,10.90
2018-11-05T00:45:17.575Z,10.80
2018-11-05T00:47:45.483Z,10.80
2018-11-05T00:50:15.124Z,10.70
2018-11-05T00:52:42.730Z,10.70
2018-11-05T00:55:11.695Z,10.70
2018-11-05T00:57:40.855Z,10.60
2018-11-05T01:00:17.070Z,10.50
2018-11-05T01:02:45.329Z,10.50
2018-11-05T01:05:16.735Z,10.40
2018-11-05T01:07:44.975Z,10.30
2018-11-05T01:10:13.455Z,10.30
2018-11-05T01:12:41.272Z,10.30
2018-11-05T01:15:12.327Z,10.20
2018-11-05T01:17:40.608Z,10.20
2018-11-05T01:20:09.647Z,10.20
2018-11-05T01:22:37.856Z,10.10
2018-11-05T01:25:06.271Z,10.00
2018-11-05T01:27:35.024Z,9.90
2018-11-05T01:30:02.877Z,9.80
2018-11-05T01:32:31.362Z,9.80
2018-11-05T01:34:58.906Z,9.80
2018-11-05T01:37:28.188Z,9.60
2018-11-05T01:39:56.180Z,9.60
2018-11-05T01:42:24.233Z,9.60
2018-11-05T01:44:51.743Z,9.60
2018-11-05T01:47:19.261Z,9.50
2018-11-05T01:49:47.319Z,9.50
2018-11-05T01:52:15.495Z,9.40
2018-11-05T01:54:43.880Z,9.40
2018-11-05T01:57:11.927Z,9.30
2018-11-05T01:59:40.435Z,9.30
2018-11-05T02:02:08.016Z,9.30
2018-11-05T02:04:35.572Z,9.30
2018-11-05T02:07:04.376Z,9.30
2018-11-05T02:09:31.935Z,9.30
2018-11-05T02:12:00.640Z,9.40
2018-11-05T02:14:28.201Z,9.20
2018-11-05T02:16:57.312Z,9.20
2018-11-05T02:19:25.337Z,9.20
2018-11-05T02:21:52.865Z,9.20
2018-11-05T02:24:20.839Z,9.10
2018-11-05T02:26:49.607Z,9.10
2018-11-05T02:29:18.625Z,9.00
2018-11-05T02:31:46.156Z,9.00
2018-11-05T02:34:14.185Z,9.00
2018-11-05T02:36:41.756Z,8.90
2018-11-05T02:39:10.143Z,8.90
2018-11-05T02:41:38.405Z,8.90
2018-11-05T02:44:05.943Z,8.80
2018-11-05T02:46:34.826Z,8.80
2018-11-05T02:49:03.599Z,8.80
2018-11-05T02:51:31.241Z,8.80
2018-11-05T02:53:59.451Z,8.80
2018-11-05T02:56:28.066Z,8.80
2018-11-05T02:58:55.588Z,8.80
2018-11-05T03:01:23.668Z,8.80
2018-11-05T03:03:51.240Z,8.80
2018-11-05T03:06:19.694Z,8.80
2018-11-05T03:08:47.249Z,8.80
2018-11-05T03:11:14.784Z,8.80
2018-11-05T03:13:42.545Z,8.80
2018-11-05T03:16:10.624Z,8.80
2018-11-05T03:18:38.183Z,8.70
2018-11-05T03:21:05.724Z,8.70
2018-11-05T03:23:33.828Z,8.70
2018-11-05T03:26:01.720Z,8.70
2018-11-05T03:28:29.898Z,8.70
2018-11-05T03:30:58.163Z,8.60
2018-11-05T03:33:25.727Z,8.60
2018-11-05T03:35:53.392Z,8.60
2018-11-05T03:38:21.448Z,8.50
2018-11-05T03:40:49.076Z,8.50
2018-11-05T03:43:17.072Z,8.50
2018-11-05T03:45:44.616Z,8.50
2018-11-05T03:48:12.824Z,8.50
2018-11-05T03:50:40.336Z,8.40
2018-11-05T03:53:07.883Z,8.40
2018-11-05T03:55:36.215Z,8.40
2018-11-05T03:58:04.547Z,8.30
2018-11-05T04:00:32.074Z,8.30
2018-11-05T04:02:59.607Z,8.20
2018-11-05T04:05:27.938Z,8.20
2018-11-05T04:07:55.456Z,8.20
2018-11-05T04:10:23.080Z,8.20
2018-11-05T04:12:50.712Z,8.20
2018-11-05T04:15:18.350Z,8.20
2018-11-05T04:17:46.796Z,8.20
2018-11-05T04:20:14.819Z,8.20
2018-11-05T04:22:43.395Z,8.30
2018-11-05T04:26:40.843Z,8.30
2018-11-05T04:29:09.146Z,8.30
2018-11-05T04:31:37.787Z,8.30
2018-11-05T04:34:05.455Z,8.30
2018-11-05T04:36:33.792Z,8.30
2018-11-05T04:39:01.357Z,8.30
2018-11-05T04:41:29.427Z,8.30
2018-11-05T04:43:57.703Z,8.30
2018-11-05T04:46:25.892Z,8.30
2018-11-05T04:48:53.792Z,8.30
2018-11-05T04:51:21.343Z,8.30
2018-11-05T04:53:48.937Z,8.40
2018-11-05T04:56:17.109Z,8.40
2018-11-05T04:58:45.035Z,8.40
2018-11-05T05:01:12.554Z,8.40
2018-11-05T05:03:40.224Z,8.40
2018-11-05T05:06:08.709Z,8.50
2018-11-05T05:08:36.234Z,8.50
2018-11-05T05:11:03.811Z,8.40
2018-11-05T05:13:32.017Z,8.50
2018-11-05T05:15:59.577Z,8.40
2018-11-05T05:18:27.692Z,8.40
2018-11-05T05:20:55.754Z,8.40
2018-11-05T05:23:23.429Z,8.40
2018-11-05T05:25:52.237Z,8.40
2018-11-05T05:28:20.423Z,8.40
2018-11-05T05:30:47.963Z,8.30
2018-11-05T05:33:16.090Z,8.30
2018-11-05T05:35:43.996Z,8.30
2018-11-05T05:38:12.009Z,8.30
2018-11-05T05:40:41.250Z,8.30
2018-11-05T05:43:10.504Z,8.40
2018-11-05T05:45:38.690Z,8.40
2018-11-05T05:48:06.711Z,8.40
2018-11-05T05:50:34.311Z,8.50
2018-11-05T05:53:01.948Z,8.50
2018-11-05T05:55:30.087Z,8.50
2018-11-05T05:57:58.354Z,8.50
2018-11-05T06:00:26.005Z,8.50
2018-11-05T06:02:53.593Z,8.50
2018-11-05T06:05:22.784Z,8.40
2018-11-05T06:07:50.346Z,8.40
2018-11-05T06:10:17.879Z,8.40
2018-11-05T06:12:45.576Z,8.40
2018-11-05T06:15:14.534Z,8.40
2018-11-05T06:17:42.836Z,8.50
2018-11-05T06:20:13.137Z,8.40
2018-11-05T06:22:41.013Z,8.40
2018-11-05T06:25:09.305Z,8.50
2018-11-05T06:27:37.823Z,8.50
2018-11-05T06:30:09.338Z,8.50
2018-11-05T06:32:40.089Z,8.60
2018-11-05T06:35:08.563Z,8.60
2018-11-05T06:37:37.312Z,8.70
2018-11-05T06:40:06.909Z,8.70
2018-11-05T06:42:34.525Z,8.80
2018-11-05T06:45:02.252Z,8.90
2018-11-05T06:47:29.794Z,8.90
2018-11-05T06:49:59.202Z,9.00
2018-11-05T06:52:26.758Z,9.10
2018-11-05T06:54:55.059Z,9.20
2018-11-05T06:57:23.348Z,9.20
2018-11-05T06:59:51.255Z,9.30
2018-11-05T07:02:18.789Z,9.40
2018-11-05T07:04:46.332Z,9.50
2018-11-05T07:07:14.799Z,9.60
2018-11-05T07:09:42.425Z,9.70
2018-11-05T07:12:09.888Z,9.80
2018-11-05T07:14:37.431Z,9.90
2018-11-05T07:17:05.897Z,10.10
2018-11-05T07:19:33.458Z,10.10
2018-11-05T07:22:02.568Z,10.30
2018-11-05T07:24:30.946Z,10.50
2018-11-05T07:26:58.458Z,10.60
2018-11-05T07:29:25.999Z,10.70
2018-11-05T07:31:54.040Z,10.80
2018-11-05T07:34:22.745Z,10.90
2018-11-05T07:36:51.018Z,11.10
2018-11-05T07:39:19.915Z,11.20
2018-11-05T07:41:48.201Z,11.30
2018-11-05T07:44:15.753Z,11.40
2018-11-05T07:46:43.288Z,11.40
2018-11-05T07:49:11.710Z,11.50
2018-11-05T07:51:39.293Z,11.60
2018-11-05T07:54:08.711Z,11.60
2018-11-05T07:56:37.069Z,11.70
2018-11-05T07:59:04.671Z,11.80
2018-11-05T08:01:32.201Z,11.90
2018-11-05T08:03:59.786Z,12.00
2018-11-05T08:06:28.120Z,12.20
2018-11-05T08:08:56.339Z,12.30
2018-11-05T08:11:23.919Z,12.40
2018-11-05T08:13:51.621Z,12.50
2018-11-05T08:16:21.263Z,12.60
2018-11-05T08:18:49.441Z,12.60
2018-11-05T08:21:17.109Z,12.70
2018-11-05T08:23:45.663Z,12.80
2018-11-05T08:26:14.239Z,12.90
2018-11-05T08:28:42.024Z,13.10
2018-11-05T08:31:10.739Z,13.20
2018-11-05T08:33:38.657Z,13.40
2018-11-05T08:36:06.936Z,13.50
2018-11-05T08:38:34.477Z,13.60
2018-11-05T08:41:02.538Z,13.70
2018-11-05T08:43:30.415Z,13.90
2018-11-05T08:45:58.127Z,13.90
2018-11-05T08:48:26.434Z,14.00
2018-11-05T08:50:54.159Z,14.10
2018-11-05T08:53:21.695Z,14.20
2018-11-05T08:55:49.964Z,14.20
2018-11-05T08:58:18.331Z,14.30
2018-11-05T09:00:52.269Z,14.40
2018-11-05T09:03:20.151Z,14.50
2018-11-05T09:05:48.345Z,14.60
2018-11-05T09:08:15.859Z,14.70
2018-11-05T09:10:44.911Z,14.70
2018-11-05T09:13:12.138Z,14.80
2018-11-05T09:15:39.691Z,14.90
2018-11-05T09:18:07.855Z,14.90
2018-11-05T09:20:36.114Z,15.00
2018-11-05T09:23:04.352Z,15.10
2018-11-05T09:25:32.413Z,15.20
2018-11-05T09:27:59.998Z,15.30
2018-11-05T09:30:28.151Z,15.40
2018-11-05T09:32:56.131Z,15.50
2018-11-05T09:35:23.753Z,15.50
2018-11-05T09:37:52.120Z,15.60
2018-11-05T09:40:21.895Z,15.70
2018-11-05T09:42:51.015Z,15.80
2018-11-05T09:45:23.836Z,15.80
2018-11-05T09:47:52.207Z,15.80
2018-11-05T09:50:20.145Z,15.90
2018-11-05T09:52:47.711Z,15.90
2018-11-05T09:55:16.155Z,16.00
2018-11-05T09:57:44.964Z,16.10
2018-11-05T10:00:14.639Z,16.30
2018-11-05T10:02:47.943Z,16.40
2018-11-05T10:05:16.769Z,16.60
2018-11-05T10:07:44.684Z,16.60
2018-11-05T10:10:13.203Z,16.80
2018-11-05T10:12:41.410Z,17.00
2018-11-05T10:15:11.351Z,17.10
2018-11-05T10:17:40.698Z,17.20
2018-11-05T10:20:11.037Z,17.40
2018-11-05T10:22:38.674Z,17.50
2018-11-05T10:25:08.748Z,17.60
2018-11-05T10:27:37.263Z,17.70
2018-11-05T10:30:08.787Z,17.80
2018-11-05T10:32:36.448Z,17.90
2018-11-05T10:35:04.754Z,18.10
2018-11-05T10:37:32.425Z,18.30
2018-11-05T10:40:01.039Z,18.40
2018-11-05T10:42:28.585Z,18.50
2018-11-05T10:44:56.297Z,18.60
2018-11-05T10:47:24.703Z,18.80
2018-11-05T10:49:53.115Z,18.90
2018-11-05T10:52:21.907Z,19.00
2018-11-05T10:54:51.001Z,19.10
2018-11-05T10:57:19.036Z,19.20
2018-11-05T10:59:47.303Z,19.30
2018-11-05T11:02:20.471Z,19.50
2018-11-05T11:04:48.689Z,19.60
2018-11-05T11:07:17.003Z,19.70
2018-11-05T11:09:44.608Z,19.80
2018-11-05T11:12:12.727Z,19.90
2018-11-05T11:14:40.330Z,20.00
2018-11-05T11:17:09.088Z,20.10
2018-11-05T11:19:36.633Z,20.20
2018-11-05T11:22:04.262Z,20.30
2018-11-05T11:24:32.130Z,20.40
2018-11-05T11:26:59.674Z,20.50
2018-11-05T11:29:28.151Z,20.60
2018-11-05T11:31:55.624Z,20.70
2018-11-05T11:34:23.169Z,20.80
2018-11-05T11:36:51.409Z,20.90
2018-11-05T11:39:21.476Z,20.80
2018-11-05T11:41:49.859Z,20.90
2018-11-05T11:44:18.436Z,21.00
2018-11-05T11:46:46.183Z,21.10
2018-11-05T11:49:14.258Z,21.10
2018-11-05T11:51:41.803Z,21.10
2018-11-05T11:54:11.691Z,21.20
2018-11-05T11:56:39.591Z,21.10
2018-11-05T11:59:08.410Z,21.20
2018-11-05T12:01:41.722Z,21.20
2018-11-05T12:04:09.382Z,21.20
2018-11-05T12:06:38.249Z,21.20
2018-11-05T12:09:08.649Z,21.20
2018-11-05T12:11:37.131Z,21.30
2018-11-05T12:14:05.916Z,21.40
2018-11-05T12:16:34.369Z,21.60
2018-11-05T12:19:02.020Z,21.60
2018-11-05T12:21:30.957Z,21.60
2018-11-05T12:23:58.508Z,21.60
2018-11-05T12:26:26.524Z,21.50
2018-11-05T12:28:54.106Z,21.50
2018-11-05T12:31:21.801Z,21.70
2018-11-05T12:33:50.723Z,21.80
2018-11-05T12:36:19.379Z,21.80
2018-11-05T12:38:47.596Z,21.80
2018-11-05T12:41:15.964Z,21.90
2018-11-05T12:43:43.975Z,21.90
2018-11-05T12:46:11.975Z,21.90
2018-11-05T12:48:40.339Z,21.90
2018-11-05T12:51:08.844Z,21.90
2018-11-05T12:53:36.865Z,21.90
2018-11-05T12:56:06.064Z,22.00
2018-11-05T12:58:34.855Z,22.00
2018-11-05T13:01:02.423Z,22.00
2018-11-05T13:03:30.055Z,22.00
2018-11-05T13:05:58.983Z,22.00
2018-11-05T13:08:27.388Z,22.00
2018-11-05T13:10:54.939Z,21.90
2018-11-05T13:13:22.515Z,21.90
2018-11-05T13:15:50.089Z,21.80
2018-11-05T13:18:18.236Z,21.90
2018-11-05T13:20:47.307Z,21.80
2018-11-05T13:23:20.632Z,21.90
2018-11-05T13:25:48.908Z,21.80
2018-11-05T13:28:16.505Z,21.90
2018-11-05T13:30:44.442Z,21.80
2018-11-05T13:33:11.991Z,21.90
2018-11-05T13:35:40.506Z,21.70
2018-11-05T13:38:08.656Z,21.70
2018-11-05T13:40:36.199Z,21.60
2018-11-05T13:43:04.040Z,21.50
2018-11-05T13:45:31.741Z,21.30
2018-11-05T13:48:00.459Z,21.10
2018-11-05T13:50:28.414Z,20.80
2018-11-05T13:52:55.572Z,20.60
2018-11-05T13:55:23.761Z,20.50
2018-11-05T13:57:52.612Z,20.40
2018-11-05T14:00:20.688Z,20.20
2018-11-05T14:02:48.775Z,20.10
2018-11-05T14:05:16.906Z,19.90
2018-11-05T14:07:44.716Z,19.80
2018-11-05T14:10:14.418Z,19.70
2018-11-05T14:12:43.074Z,19.70
2018-11-05T14:15:11.195Z,19.60
2018-11-05T14:17:40.634Z,19.50
2018-11-05T14:20:10.060Z,19.40
2018-11-05T14:22:38.082Z,19.30
2018-11-05T14:25:07.918Z,19.10
2018-11-05T14:27:36.104Z,19.00
2018-11-05T14:30:05.205Z,18.90
2018-11-05T14:32:32.689Z,18.90
2018-11-05T14:35:00.483Z,19.00
2018-11-05T14:37:28.646Z,18.90
2018-11-05T14:39:56.244Z,18.80
2018-11-05T14:42:24.524Z,18.80
2018-11-05T14:44:52.712Z,18.70
2018-11-05T14:47:20.673Z,18.70
2018-11-05T14:49:49.162Z,18.70
2018-11-05T14:52:16.731Z,18.70
2018-11-05T14:54:45.190Z,18.70
2018-11-05T14:57:14.059Z,18.60
2018-11-05T14:59:41.563Z,18.60
2018-11-05T15:02:16.579Z,18.30
2018-11-05T15:04:44.890Z,18.30
2018-11-05T15:07:13.440Z,18.20
2018-11-05T15:09:41.153Z,18.20
2018-11-05T15:12:09.793Z,18.10
2018-11-05T15:14:37.859Z,18.00
2018-11-05T15:17:06.970Z,17.90
2018-11-05T15:19:35.473Z,17.80
2018-11-05T15:22:02.759Z,17.70
2018-11-05T15:24:30.890Z,17.60
2018-11-05T15:26:58.591Z,17.50
2018-11-05T15:29:26.939Z,17.40
2018-11-05T15:31:55.124Z,17.40
2018-11-05T15:34:22.764Z,17.30
2018-11-05T15:36:50.314Z,17.20
2018-11-05T15:39:17.896Z,17.10
2018-11-05T15:41:45.839Z,17.10
2018-11-05T15:44:14.237Z,17.00
2018-11-05T15:46:42.130Z,16.90
2018-11-05T15:49:10.900Z,16.90
2018-11-05T15:51:39.232Z,16.80
2018-11-05T15:54:08.616Z,16.80
2018-11-05T15:56:36.213Z,16.80
2018-11-05T15:59:04.357Z,16.70
2018-11-05T16:01:33.164Z,16.70
2018-11-05T16:04:02.933Z,16.60
2018-11-05T16:06:32.103Z,16.50
2018-11-05T16:08:59.800Z,16.50
2018-11-05T16:11:28.439Z,16.50
2018-11-05T16:13:57.222Z,16.40
2018-11-05T16:16:25.167Z,16.40
2018-11-05T16:18:53.794Z,16.40
2018-11-05T16:21:21.319Z,16.40
2018-11-05T16:23:48.908Z,16.30
2018-11-05T16:26:17.326Z,16.30
2018-11-05T16:28:44.889Z,16.20
2018-11-05T16:31:12.432Z,16.10
2018-11-05T16:33:40.590Z,16.10
2018-11-05T16:36:08.512Z,16.00
2018-11-05T16:38:37.208Z,15.90
2018-11-05T16:41:05.944Z,15.90
2018-11-05T16:43:33.467Z,15.90
2018-11-05T16:46:01.060Z,15.80
2018-11-05T16:48:29.229Z,15.80
2018-11-05T16:50:56.792Z,15.70
2018-11-05T16:53:24.322Z,15.70
2018-11-05T16:55:53.074Z,15.70
2018-11-05T16:58:21.570Z,15.60
2018-11-05T17:00:49.196Z,15.60
2018-11-05T17:03:16.890Z,15.60
2018-11-05T17:05:44.991Z,15.60
2018-11-05T17:08:12.515Z,15.60
2018-11-05T17:10:40.917Z,15.60
2018-11-05T17:13:09.781Z,15.60
2018-11-05T17:15:37.712Z,15.60
2018-11-05T17:18:05.801Z,15.70
2018-11-05T17:20:33.345Z,15.60
2018-11-05T17:23:01.331Z,15.50
2018-11-05T17:25:31.003Z,15.50
2018-11-05T17:27:58.639Z,15.50
2018-11-05T17:30:26.233Z,15.50
2018-11-05T17:32:53.783Z,15.40
2018-11-05T17:35:21.305Z,15.30
2018-11-05T17:37:49.407Z,15.20
2018-11-05T17:40:18.912Z,15.10
2018-11-05T17:42:47.164Z,15.00
2018-11-05T17:45:16.186Z,15.00
2018-11-05T17:47:44.172Z,14.90
2018-11-05T17:50:14.533Z,14.90
2018-11-05T17:52:43.438Z,14.90
2018-11-05T17:55:13.098Z,14.90
2018-11-05T17:57:43.271Z,14.90
2018-11-05T18:00:14.066Z,14.90
2018-11-05T18:02:42.199Z,14.90
2018-11-05T18:05:10.399Z,15.00
2018-11-05T18:07:39.079Z,15.00
2018-11-05T18:10:07.392Z,15.00
2018-11-05T18:12:35.619Z,15.00
2018-11-05T18:15:05.531Z,15.00
2018-11-05T18:17:33.618Z,15.00
2018-11-05T18:20:01.195Z,15.10
2018-11-05T18:22:28.727Z,15.00
2018-11-05T18:24:57.131Z,15.00
2018-11-05T18:27:24.663Z,14.90
2018-11-05T18:29:52.202Z,15.00
2018-11-05T18:32:20.736Z,14.90
2018-11-05T18:34:50.409Z,14.90
2018-11-05T18:37:19.107Z,14.90
2018-11-05T18:39:48.345Z,14.90
2018-11-05T18:42:16.528Z,14.90
2018-11-05T18:44:44.729Z,15.00
2018-11-05T18:47:12.271Z,15.00
2018-11-05T18:49:40.975Z,15.00
2018-11-05T18:52:09.953Z,14.90
2018-11-05T18:54:38.232Z,14.90
2018-11-05T18:57:06.433Z,14.80
2018-11-05T18:59:34.560Z,14.80
2018-11-05T19:02:02.596Z,14.70
2018-11-05T19:04:30.978Z,14.70
2018-11-05T19:06:59.330Z,14.70
2018-11-05T19:09:27.426Z,14.70
2018-11-05T19:11:55.031Z,14.70
2018-11-05T19:14:22.560Z,14.70
2018-11-05T19:16:50.732Z,14.60
2018-11-05T19:19:18.268Z,14.60
2018-11-05T19:21:46.451Z,14.60
2018-11-05T19:24:15.488Z,14.60
2018-11-05T19:26:42.916Z,14.70
2018-11-05T19:29:10.529Z,14.70
2018-11-05T19:31:38.975Z,14.70
2018-11-05T19:34:07.098Z,14.70
2018-11-05T19:36:36.004Z,14.80
2018-11-05T19:39:08.081Z,14.80
2018-11-05T19:41:36.303Z,14.90
2018-11-05T19:44:05.112Z,15.00
2018-11-05T19:46:33.315Z,14.90
2018-11-05T19:49:01.642Z,14.90
2018-11-05T19:51:29.823Z,14.90
2018-11-05T19:53:57.490Z,14.80
2018-11-05T19:56:26.658Z,14.90
2018-11-05T19:58:54.775Z,15.00
2018-11-05T20:01:22.360Z,14.90
2018-11-05T20:03:50.944Z,15.00
2018-11-05T20:06:19.425Z,15.00
2018-11-05T20:08:46.947Z,15.10
2018-11-05T20:11:14.474Z,15.10
2018-11-05T20:13:42.018Z,15.20
2018-11-05T20:16:10.184Z,15.20
2018-11-05T20:18:38.261Z,15.10
2018-11-05T20:21:05.774Z,15.00
2018-11-05T20:23:33.965Z,14.90
2018-11-05T20:26:02.164Z,15.00
2018-11-05T20:28:29.871Z,15.20
2018-11-05T20:30:57.788Z,15.10
2018-11-05T20:33:25.420Z,15.10
2018-11-05T20:35:52.956Z,14.90
2018-11-05T20:38:21.125Z,14.80
2018-11-05T20:40:48.795Z,14.80
2018-11-05T20:43:16.968Z,14.70
2018-11-05T20:45:45.291Z,14.60
2018-11-05T20:48:13.620Z,14.70
2018-11-05T20:50:42.116Z,14.70
2018-11-05T20:53:09.979Z,14.70
2018-11-05T20:55:38.280Z,14.70
2018-11-05T20:58:07.266Z,14.70
2018-11-05T21:00:35.639Z,14.70
2018-11-05T21:03:04.335Z,14.80
2018-11-05T21:05:32.725Z,14.90
2018-11-05T21:08:00.261Z,15.00
2018-11-05T21:10:28.423Z,15.00
2018-11-05T21:12:56.081Z,15.00
2018-11-05T21:15:25.042Z,15.00
2018-11-05T21:17:53.452Z,15.10
2018-11-05T21:20:22.920Z,15.10
2018-11-05T21:22:50.912Z,15.20
2018-11-05T21:25:18.686Z,15.20
2018-11-05T21:27:46.209Z,15.20
2018-11-05T21:30:16.097Z,15.30
2018-11-05T21:32:43.819Z,15.30
2018-11-05T21:35:13.370Z,15.50
2018-11-05T21:37:41.336Z,15.50
2018-11-05T21:40:11.309Z,15.60
2018-11-05T21:42:40.642Z,15.60
2018-11-05T21:45:10.952Z,15.60
2018-11-05T21:47:39.230Z,15.70
2018-11-05T21:50:11.182Z,15.70
2018-11-05T21:52:39.939Z,15.70
2018-11-05T21:55:09.040Z,15.60
2018-11-05T21:57:39.679Z,15.60
2018-11-05T22:00:11.692Z,15.60
2018-11-05T22:02:47.955Z,15.70
2018-11-05T22:05:16.562Z,15.60
2018-11-05T22:07:46.319Z,15.60
2018-11-05T22:10:14.171Z,15.50
2018-11-05T22:12:43.267Z,15.50
2018-11-05T22:15:11.473Z,15.40
2018-11-05T22:17:39.885Z,15.60
2018-11-05T22:20:08.999Z,15.60
2018-11-05T22:22:36.958Z,15.60
2018-11-05T22:25:05.765Z,15.70
2018-11-05T22:27:33.919Z,15.70
2018-11-05T22:30:03.051Z,15.70
2018-11-05T22:32:30.589Z,15.70
2018-11-05T22:34:59.207Z,15.70
2018-11-05T22:37:26.906Z,15.70
2018-11-05T22:39:54.401Z,15.70
2018-11-05T22:42:22.109Z,15.60
2018-11-05T22:44:50.546Z,15.60
2018-11-05T22:47:18.168Z,15.50
2018-11-05T22:49:46.107Z,15.40
2018-11-05T22:52:16.802Z,15.50
2018-11-05T22:54:45.103Z,15.40
2018-11-05T22:57:13.307Z,15.40
2018-11-05T22:59:43.522Z,15.40
2018-11-05T23:02:11.145Z,15.40
2018-11-05T23:04:39.983Z,15.40
2018-11-05T23:07:08.085Z,15.40
2018-11-05T23:09:35.704Z,15.40
2018-11-05T23:12:03.343Z,15.30
2018-11-05T23:14:31.594Z,15.30
2018-11-05T23:16:59.944Z,15.40
2018-11-05T23:19:27.456Z,15.40
2018-11-05T23:21:54.960Z,15.40
2018-11-05T23:24:24.499Z,15.30
2018-11-05T23:26:52.039Z,15.20
2018-11-05T23:29:19.598Z,15.30
2018-11-05T23:31:47.264Z,15.20
2018-11-05T23:34:14.788Z,15.20
2018-11-05T23:36:42.378Z,15.20
2018-11-05T23:39:10.368Z,15.10
2018-11-05T23:41:38.863Z,15.00
2018-11-05T23:44:06.415Z,15.00
2018-11-05T23:46:34.656Z,15.00
2018-11-05T23:49:03.035Z,15.00
2018-11-05T23:51:31.262Z,14.90
2018-11-05T23:53:59.561Z,14.80
2018-11-05T23:56:28.245Z,14.90
2018-11-05T23:58:56.732Z,14.90
